Time;durP1;ratioP1;P1;durP2;ratioP2;P2;SDS_P1;SDS_P2;PMS_P1;PMS_P2;Temp;Humidity;BMP_temperature;BMP_pressure;BME280_temperature;BME280_humidity;BME280_pressure;Samples;Min_cycle;Max_cycle;Signal;HPM_P1;HPM_P2
2021/01/07 00:03:56;;;;;;;12.95;9.13;;;;;;;;;;10460735;27;20070;-62
2021/01/07 00:08:54;;;;;;;15.15;10.05;;;;;;;;;;10460675;27;20074;-63
2021/01/07 00:13:52;;;;;;;29.63;16.92;;;;;;;;;;10455950;27;20075;-63
2021/01/07 00:18:49;;;;;;;25.10;14.85;;;;;;;;;;10460789;27;20465;-63
2021/01/07 00:23:47;;;;;;;22.55;13.85;;;;;;;;;;10460659;27;20047;-62
2021/01/07 00:28:47;;;;;;;18.40;11.90;;;;;;;;;;10455728;27;20081;-61
2021/01/07 00:33:45;;;;;;;19.40;14.18;;;;;;;;;;10460073;27;20070;-62
2021/01/07 00:38:42;;;;;;;21.92;12.27;;;;;;;;;;10460296;27;20170;-62
2021/01/07 00:43:40;;;;;;;21.20;11.85;;;;;;;;;;10460511;27;20070;-62
2021/01/07 00:48:38;;;;;;;64.07;32.75;;;;;;;;;;10457942;27;20498;-61
2021/01/07 00:53:35;;;;;;;30.77;16.40;;;;;;;;;;10441497;27;20078;-62
2021/01/07 00:58:34;;;;;;;34.00;19.08;;;;;;;;;;10441251;27;20409;-62
2021/01/07 01:03:31;;;;;;;29.27;17.83;;;;;;;;;;10456757;27;20075;-61
2021/01/07 01:08:29;;;;;;;10.77;7.43;;;;;;;;;;10435379;27;20090;-62
2021/01/07 01:13:26;;;;;;;12.15;6.00;;;;;;;;;;10459661;27;20074;-63
2021/01/07 01:18:24;;;;;;;17.30;9.70;;;;;;;;;;10458641;27;20046;-60
2021/01/07 01:23:21;;;;;;;19.58;9.68;;;;;;;;;;10459454;27;20525;-62
2021/01/07 01:28:19;;;;;;;17.77;9.35;;;;;;;;;;10457792;27;20128;-62
2021/01/07 01:33:16;;;;;;;16.90;7.68;;;;;;;;;;10458515;27;20085;-61
2021/01/07 01:38:14;;;;;;;9.80;5.57;;;;;;;;;;10458713;27;20475;-63
2021/01/07 01:43:11;;;;;;;7.63;4.28;;;;;;;;;;10454952;27;20070;-62
2021/01/07 01:48:11;;;;;;;9.07;4.47;;;;;;;;;;10438611;27;20039;-62
2021/01/07 01:53:08;;;;;;;9.07;4.93;;;;;;;;;;10455282;27;20059;-62
2021/01/07 01:58:05;;;;;;;4.63;3.47;;;;;;;;;;10456562;27;20059;-63
2021/01/07 02:03:04;;;;;;;8.93;5.25;;;;;;;;;;10453613;27;20059;-61
2021/01/07 02:08:03;;;;;;;4.13;3.38;;;;;;;;;;10453853;27;20078;-62
2021/01/07 02:13:03;;;;;;;9.18;4.15;;;;;;;;;;10464378;27;20066;-62
2021/01/07 02:18:00;;;;;;;11.25;5.80;;;;;;;;;;10445988;27;20419;-62
2021/01/07 02:22:58;;;;;;;13.60;7.25;;;;;;;;;;10464835;27;20075;-63
2021/01/07 02:27:58;;;;;;;20.73;10.68;;;;;;;;;;10465367;27;20070;-62
2021/01/07 02:32:55;;;;;;;19.23;9.40;;;;;;;;;;10462578;27;20066;-62
2021/01/07 02:37:52;;;;;;;33.38;16.80;;;;;;;;;;10462038;27;20070;-62
2021/01/07 02:42:50;;;;;;;20.38;11.68;;;;;;;;;;10475519;27;20050;-62
2021/01/07 02:47:48;;;;;;;21.55;8.57;;;;;;;;;;10485669;27;20085;-62
2021/01/07 02:52:46;;;;;;;28.90;15.15;;;;;;;;;;10485672;27;20062;-62
2021/01/07 02:57:43;;;;;;;24.80;15.02;;;;;;;;;;10484576;27;20098;-62
2021/01/07 03:02:42;;;;;;;22.98;15.10;;;;;;;;;;10485877;27;20475;-62
2021/01/07 03:07:39;;;;;;;27.55;16.63;;;;;;;;;;10483909;27;20042;-62
2021/01/07 03:12:36;;;;;;;31.23;17.35;;;;;;;;;;10484989;27;20518;-62
2021/01/07 03:17:34;;;;;;;18.90;11.15;;;;;;;;;;10479544;27;20078;-61
2021/01/07 03:22:32;;;;;;;15.73;10.13;;;;;;;;;;10479508;27;20065;-61
2021/01/07 03:27:29;;;;;;;17.88;10.02;;;;;;;;;;10482727;27;20101;-61
2021/01/07 03:32:26;;;;;;;14.38;8.93;;;;;;;;;;10484061;27;20069;-62
2021/01/07 03:37:24;;;;;;;12.18;8.35;;;;;;;;;;10485258;27;20070;-61
2021/01/07 03:42:22;;;;;;;7.95;5.63;;;;;;;;;;10477832;27;20050;-62
2021/01/07 03:47:19;;;;;;;8.18;4.43;;;;;;;;;;10462201;27;20051;-62
2021/01/07 03:52:17;;;;;;;5.57;3.42;;;;;;;;;;10464180;27;20065;-62
2021/01/07 03:57:14;;;;;;;4.20;3.28;;;;;;;;;;10460185;27;20078;-62
2021/01/07 04:02:12;;;;;;;6.50;4.40;;;;;;;;;;10459086;27;20042;-62
2021/01/07 04:07:09;;;;;;;7.57;4.30;;;;;;;;;;10462972;27;20148;-62
2021/01/07 04:12:07;;;;;;;6.18;4.00;;;;;;;;;;10460795;27;20046;-62
2021/01/07 04:17:04;;;;;;;8.73;4.78;;;;;;;;;;10461318;27;20082;-62
2021/01/07 04:22:02;;;;;;;12.63;8.30;;;;;;;;;;10462088;27;20042;-62
2021/01/07 04:27:02;;;;;;;14.07;8.73;;;;;;;;;;10442014;27;20047;-62
2021/01/07 04:31:59;;;;;;;9.15;5.43;;;;;;;;;;10460520;27;20066;-62
2021/01/07 04:36:57;;;;;;;4.25;3.20;;;;;;;;;;10460432;27;20071;-61
2021/01/07 04:41:55;;;;;;;6.72;3.38;;;;;;;;;;10463825;27;20082;-62
2021/01/07 04:46:52;;;;;;;11.05;3.90;;;;;;;;;;10479583;27;20583;-62
2021/01/07 04:51:49;;;;;;;6.10;3.67;;;;;;;;;;10481602;27;20043;-62
2021/01/07 04:56:47;;;;;;;7.97;3.58;;;;;;;;;;10481555;27;20464;-62
2021/01/07 05:01:46;;;;;;;7.13;3.03;;;;;;;;;;10484341;27;20035;-63
2021/01/07 05:06:44;;;;;;;4.95;2.78;;;;;;;;;;10482282;27;20392;-63
2021/01/07 05:11:42;;;;;;;5.43;2.58;;;;;;;;;;10481669;27;20062;-61
2021/01/07 05:16:39;;;;;;;9.75;4.22;;;;;;;;;;10481544;27;20070;-63
2021/01/07 05:21:37;;;;;;;8.35;3.55;;;;;;;;;;10481322;27;20523;-62
2021/01/07 05:26:34;;;;;;;7.78;5.07;;;;;;;;;;10481588;27;20059;-64
2021/01/07 05:31:32;;;;;;;8.02;5.05;;;;;;;;;;10479021;27;20322;-62
2021/01/07 05:36:30;;;;;;;6.28;3.67;;;;;;;;;;10481536;27;20456;-62
2021/01/07 05:41:29;;;;;;;8.30;4.32;;;;;;;;;;10479563;27;20057;-63
2021/01/07 05:46:26;;;;;;;5.25;3.08;;;;;;;;;;10485511;27;20034;-62
2021/01/07 05:51:24;;;;;;;3.65;3.05;;;;;;;;;;10487197;27;20524;-62
2021/01/07 05:56:22;;;;;;;7.57;4.65;;;;;;;;;;10485734;27;20620;-63
2021/01/07 06:01:21;;;;;;;7.22;3.72;;;;;;;;;;10487526;27;20522;-63
2021/01/07 06:06:19;;;;;;;6.38;3.67;;;;;;;;;;10487585;27;20054;-62
2021/01/07 06:11:17;;;;;;;9.30;4.30;;;;;;;;;;10488494;27;20034;-62
2021/01/07 06:16:15;;;;;;;5.57;4.50;;;;;;;;;;10465490;27;20047;-64
2021/01/07 06:21:13;;;;;;;10.55;5.63;;;;;;;;;;10484253;27;20046;-62
2021/01/07 06:26:17;;;;;;;7.03;5.18;;;;;;;;;;10487637;27;20058;-63
2021/01/07 06:31:15;;;;;;;8.30;5.03;;;;;;;;;;10485136;27;20051;-64
2021/01/07 06:36:13;;;;;;;7.93;5.13;;;;;;;;;;10484850;27;20074;-62
2021/01/07 06:41:12;;;;;;;8.60;4.38;;;;;;;;;;10486995;27;20050;-62
2021/01/07 06:46:09;;;;;;;6.88;4.30;;;;;;;;;;10486564;27;20070;-62
2021/01/07 06:51:07;;;;;;;8.07;5.10;;;;;;;;;;10485461;27;20081;-62
2021/01/07 06:56:25;;;;;;;10.32;4.72;;;;;;;;;;10486343;27;20511;-63
2021/01/07 07:01:23;;;;;;;7.68;5.32;;;;;;;;;;10481514;27;20059;-63
2021/01/07 07:06:25;;;;;;;5.82;4.13;;;;;;;;;;10486011;27;20065;-63
2021/01/07 07:11:32;;;;;;;6.93;4.38;;;;;;;;;;10485755;27;20030;-63
2021/01/07 07:16:34;;;;;;;5.25;3.85;;;;;;;;;;10485709;27;20518;-63
2021/01/07 07:21:31;;;;;;;7.25;5.70;;;;;;;;;;10485755;27;20510;-62
2021/01/07 07:26:31;;;;;;;13.88;9.90;;;;;;;;;;10485180;27;20038;-62
2021/01/07 07:31:39;;;;;;;15.85;11.15;;;;;;;;;;10484198;27;20415;-62
2021/01/07 07:36:37;;;;;;;14.15;8.88;;;;;;;;;;10482379;27;20157;-62
2021/01/07 07:41:41;;;;;;;13.75;10.85;;;;;;;;;;10481736;27;20074;-64
2021/01/07 07:46:40;;;;;;;9.40;8.05;;;;;;;;;;10460504;27;20043;-63
2021/01/07 07:51:38;;;;;;;8.73;7.30;;;;;;;;;;10463415;27;20069;-63
2021/01/07 07:56:36;;;;;;;18.33;9.88;;;;;;;;;;10462296;27;20141;-62
2021/01/07 08:01:42;;;;;;;12.13;9.05;;;;;;;;;;10458493;27;20077;-62
2021/01/07 08:06:40;;;;;;;14.00;9.68;;;;;;;;;;10462033;27;20458;-62
2021/01/07 08:11:41;;;;;;;17.45;10.38;;;;;;;;;;10460168;27;20078;-62
2021/01/07 08:16:39;;;;;;;32.80;19.95;;;;;;;;;;10461660;27;20459;-62
2021/01/07 08:21:42;;;;;;;15.43;11.77;;;;;;;;;;10460852;27;20067;-62
2021/01/07 08:26:42;;;;;;;17.42;13.30;;;;;;;;;;10461831;27;20043;-64
2021/01/07 08:31:41;;;;;;;17.65;11.98;;;;;;;;;;10461021;27;20452;-62
2021/01/07 08:36:40;;;;;;;12.68;10.02;;;;;;;;;;10461592;27;20058;-63
2021/01/07 08:41:37;;;;;;;15.35;12.25;;;;;;;;;;10465129;27;20074;-61
2021/01/07 08:46:37;;;;;;;16.85;13.40;;;;;;;;;;10482119;27;20035;-63
2021/01/07 08:51:39;;;;;;;16.63;12.40;;;;;;;;;;10479170;27;20533;-62
2021/01/07 08:56:38;;;;;;;16.90;12.25;;;;;;;;;;10461356;27;20109;-62
2021/01/07 09:01:39;;;;;;;18.52;14.65;;;;;;;;;;10482068;27;20023;-63
2021/01/07 09:06:36;;;;;;;19.80;14.68;;;;;;;;;;10481163;27;20066;-63
2021/01/07 09:11:33;;;;;;;22.67;15.93;;;;;;;;;;10481062;27;20074;-64
2021/01/07 09:16:31;;;;;;;26.70;16.77;;;;;;;;;;10481429;27;20074;-63
2021/01/07 09:21:29;;;;;;;19.70;15.23;;;;;;;;;;10489055;27;20039;-63
2021/01/07 09:26:27;;;;;;;20.73;12.32;;;;;;;;;;10490321;27;20062;-63
2021/01/07 09:31:24;;;;;;;24.38;18.33;;;;;;;;;;10489637;27;20046;-63
2021/01/07 09:36:26;;;;;;;43.63;28.60;;;;;;;;;;10489646;27;20035;-63
2021/01/07 09:41:23;;;;;;;33.75;23.60;;;;;;;;;;10488874;27;20422;-63
2021/01/07 09:46:20;;;;;;;28.38;21.25;;;;;;;;;;10489358;27;20407;-63
2021/01/07 09:51:17;;;;;;;25.23;19.25;;;;;;;;;;10486057;27;20492;-61
2021/01/07 09:56:17;;;;;;;25.90;19.75;;;;;;;;;;10487366;27;20074;-63
2021/01/07 10:01:17;;;;;;;27.60;21.83;;;;;;;;;;10486147;27;20053;-62
2021/01/07 10:06:15;;;;;;;36.20;25.50;;;;;;;;;;10486089;27;20503;-63
2021/01/07 10:11:12;;;;;;;22.52;17.08;;;;;;;;;;10484430;27;20061;-62
2021/01/07 10:16:11;;;;;;;28.92;21.02;;;;;;;;;;10487001;27;20081;-62
2021/01/07 10:21:10;;;;;;;27.70;23.30;;;;;;;;;;10487217;27;20058;-63
2021/01/07 10:26:09;;;;;;;26.65;21.70;;;;;;;;;;10486757;27;20468;-63
2021/01/07 10:31:06;;;;;;;29.65;22.85;;;;;;;;;;10485957;27;20062;-63
2021/01/07 10:36:05;;;;;;;24.75;17.10;;;;;;;;;;10486687;27;20066;-63
2021/01/07 10:41:05;;;;;;;30.02;24.17;;;;;;;;;;10484982;27;20079;-63
2021/01/07 10:46:03;;;;;;;14.95;13.15;;;;;;;;;;10463720;27;20085;-62
2021/01/07 10:51:02;;;;;;;19.85;15.45;;;;;;;;;;10465321;27;20495;-62
2021/01/07 10:56:03;;;;;;;18.15;12.68;;;;;;;;;;10463819;27;20075;-62
2021/01/07 11:01:23;;;;;;;21.65;14.93;;;;;;;;;;10464822;27;20062;-63
2021/01/07 11:06:22;;;;;;;17.27;13.70;;;;;;;;;;10463289;27;20104;-63
2021/01/07 11:11:22;;;;;;;18.75;15.05;;;;;;;;;;10464725;27;20049;-63
2021/01/07 11:16:22;;;;;;;58.88;37.65;;;;;;;;;;10462634;27;20083;-62
2021/01/07 11:21:24;;;;;;;42.17;31.05;;;;;;;;;;10463831;27;20043;-63
2021/01/07 11:26:25;;;;;;;121.07;78.38;;;;;;;;;;10463116;27;20082;-63
2021/01/07 11:31:22;;;;;;;26.67;19.17;;;;;;;;;;10463820;27;20046;-63
2021/01/07 11:36:22;;;;;;;45.10;34.63;;;;;;;;;;10463289;27;20447;-62
2021/01/07 11:41:26;;;;;;;116.28;68.68;;;;;;;;;;10465282;27;20507;-63
2021/01/07 11:46:25;;;;;;;29.77;21.70;;;;;;;;;;10484242;27;20077;-63
2021/01/07 11:51:23;;;;;;;18.02;13.73;;;;;;;;;;10483383;27;20086;-62
2021/01/07 11:56:21;;;;;;;18.20;15.65;;;;;;;;;;10483818;27;20093;-63
2021/01/07 12:01:18;;;;;;;18.88;13.88;;;;;;;;;;10484149;27;20035;-62
2021/01/07 12:06:17;;;;;;;32.78;28.83;;;;;;;;;;10483190;27;20212;-61
2021/01/07 12:11:20;;;;;;;124.57;58.40;;;;;;;;;;10481027;27;20043;-61
2021/01/07 12:16:20;;;;;;;166.55;79.00;;;;;;;;;;10481364;27;20070;-61
2021/01/07 12:21:20;;;;;;;89.32;44.20;;;;;;;;;;10482544;27;20031;-61
2021/01/07 12:26:18;;;;;;;143.63;66.60;;;;;;;;;;10481807;27;20047;-62
2021/01/07 12:31:16;;;;;;;29.33;19.02;;;;;;;;;;10482726;27;20066;-62
2021/01/07 12:36:20;;;;;;;74.93;40.28;;;;;;;;;;10479686;27;20105;-63
2021/01/07 12:41:21;;;;;;;64.78;30.92;;;;;;;;;;10476311;27;20083;-62
2021/01/07 12:46:21;;;;;;;45.78;21.13;;;;;;;;;;10461006;27;20445;-62
2021/01/07 12:51:19;;;;;;;48.53;26.17;;;;;;;;;;10459517;27;20078;-62
2021/01/07 12:56:22;;;;;;;461.50;207.55;;;;;;;;;;10461499;27;20096;-62
2021/01/07 13:01:24;;;;;;;180.43;86.07;;;;;;;;;;10458240;27;20144;-62
2021/01/07 13:06:26;;;;;;;251.27;119.57;;;;;;;;;;10460748;27;20047;-62
2021/01/07 13:11:24;;;;;;;405.70;183.70;;;;;;;;;;10460024;27;20039;-62
2021/01/07 13:16:22;;;;;;;95.70;53.05;;;;;;;;;;10459634;27;20117;-62
2021/01/07 13:21:19;;;;;;;58.03;31.98;;;;;;;;;;10460077;27;20066;-62
2021/01/07 13:26:17;;;;;;;153.07;72.40;;;;;;;;;;10442139;27;20047;-62
2021/01/07 13:31:17;;;;;;;148.80;71.88;;;;;;;;;;10459026;27;20123;-62
2021/01/07 13:36:15;;;;;;;119.38;57.20;;;;;;;;;;10456095;27;20483;-61
2021/01/07 13:41:12;;;;;;;125.68;59.15;;;;;;;;;;10455889;27;20058;-61
2021/01/07 13:46:12;;;;;;;61.53;27.75;;;;;;;;;;10455586;27;20077;-61
2021/01/07 13:51:16;;;;;;;190.20;75.80;;;;;;;;;;10456091;27;20074;-62
2021/01/07 13:56:13;;;;;;;66.47;31.92;;;;;;;;;;10456362;27;20073;-62
2021/01/07 14:01:10;;;;;;;214.23;86.38;;;;;;;;;;10459976;27;20071;-61
2021/01/07 14:06:09;;;;;;;428.70;159.82;;;;;;;;;;10462203;27;20038;-61
2021/01/07 14:11:08;;;;;;;164.95;72.68;;;;;;;;;;10467175;27;20063;-60
2021/01/07 14:16:06;;;;;;;340.58;141.68;;;;;;;;;;10466786;27;20109;-61
2021/01/07 14:21:03;;;;;;;121.53;57.47;;;;;;;;;;10466452;27;20039;-62
2021/01/07 14:26:04;;;;;;;133.48;68.50;;;;;;;;;;10466294;27;20053;-62
2021/01/07 14:31:03;;;;;;;87.05;49.38;;;;;;;;;;10466268;27;20043;-60
2021/01/07 14:36:03;;;;;;;38.08;23.23;;;;;;;;;;10465688;27;20082;-60
2021/01/07 14:41:01;;;;;;;48.30;28.23;;;;;;;;;;10467457;27;20047;-61
2021/01/07 14:46:00;;;;;;;43.70;25.17;;;;;;;;;;10486803;27;20035;-62
2021/01/07 14:51:02;;;;;;;236.10;143.57;;;;;;;;;;10486197;27;20050;-62
2021/01/07 14:56:01;;;;;;;160.63;79.82;;;;;;;;;;10486480;27;20441;-62
2021/01/07 15:01:03;;;;;;;63.55;38.72;;;;;;;;;;10485203;27;20047;-63
2021/01/07 15:06:07;;;;;;;42.80;25.67;;;;;;;;;;10485879;27;20486;-63
2021/01/07 15:11:06;;;;;;;44.53;25.23;;;;;;;;;;10485057;27;20069;-62
2021/01/07 15:16:14;;;;;;;21.27;16.90;;;;;;;;;;10484519;27;20085;-62
2021/01/07 15:21:14;;;;;;;46.03;24.80;;;;;;;;;;10482943;27;20066;-62
2021/01/07 15:26:13;;;;;;;34.38;23.65;;;;;;;;;;10484594;27;20038;-62
2021/01/07 15:31:12;;;;;;;29.58;22.55;;;;;;;;;;10481791;27;20038;-62
2021/01/07 15:36:13;;;;;;;18.70;14.65;;;;;;;;;;10484082;27;20074;-62
2021/01/07 15:41:26;;;;;;;15.52;11.48;;;;;;;;;;10481321;27;20046;-61
2021/01/07 15:46:44;;;;;;;88.97;49.88;;;;;;;;;;10461470;27;20043;-62
2021/01/07 15:51:44;;;;;;;26.15;16.27;;;;;;;;;;10424436;27;20077;-62
2021/01/07 15:56:52;;;;;;;86.30;48.72;;;;;;;;;;10445661;27;20074;-62
2021/01/07 16:01:50;;;;;;;49.15;29.30;;;;;;;;;;10447368;27;20071;-62
2021/01/07 16:06:53;;;;;;;17.13;13.23;;;;;;;;;;10452059;27;20461;-61
2021/01/07 16:11:56;;;;;;;128.27;70.13;;;;;;;;;;10463025;27;20070;-63
2021/01/07 16:16:53;;;;;;;17.35;11.82;;;;;;;;;;10479124;27;20081;-63
2021/01/07 16:21:57;;;;;;;32.08;19.20;;;;;;;;;;10483602;27;20483;-64
2021/01/07 16:26:58;;;;;;;185.38;98.55;;;;;;;;;;10464799;27;20435;-63
2021/01/07 16:31:56;;;;;;;95.70;49.58;;;;;;;;;;10484088;27;20492;-63
2021/01/07 16:36:53;;;;;;;109.40;58.33;;;;;;;;;;10483484;27;20475;-63
2021/01/07 16:41:51;;;;;;;75.32;41.47;;;;;;;;;;10483367;27;20491;-63
2021/01/07 16:46:49;;;;;;;31.67;18.27;;;;;;;;;;10482695;27;20082;-62
2021/01/07 16:51:49;;;;;;;48.70;35.53;;;;;;;;;;10482763;27;20078;-62
2021/01/07 16:56:46;;;;;;;28.95;20.08;;;;;;;;;;10482620;27;20208;-62
2021/01/07 17:01:45;;;;;;;31.45;20.33;;;;;;;;;;10463313;27;20499;-61
2021/01/07 17:06:43;;;;;;;52.78;32.58;;;;;;;;;;10463564;27;20047;-61
2021/01/07 17:11:42;;;;;;;67.07;35.22;;;;;;;;;;10481955;27;20078;-62
2021/01/07 17:16:40;;;;;;;70.65;35.35;;;;;;;;;;10482640;27;20367;-62
2021/01/07 17:21:37;;;;;;;100.75;55.28;;;;;;;;;;10482747;27;20070;-63
2021/01/07 17:26:36;;;;;;;15.80;10.52;;;;;;;;;;10482045;27;20046;-63
2021/01/07 17:31:34;;;;;;;17.88;11.00;;;;;;;;;;10481601;27;20042;-62
2021/01/07 17:36:31;;;;;;;10.65;8.43;;;;;;;;;;10481040;27;20100;-62
2021/01/07 17:41:29;;;;;;;8.57;7.03;;;;;;;;;;10484905;27;20062;-62
2021/01/07 17:46:27;;;;;;;17.73;11.43;;;;;;;;;;10490244;27;20038;-61
2021/01/07 17:51:24;;;;;;;11.32;6.57;;;;;;;;;;10488755;27;20042;-61
2021/01/07 17:56:22;;;;;;;14.95;9.13;;;;;;;;;;10489070;27;20042;-62
2021/01/07 18:01:22;;;;;;;12.65;8.07;;;;;;;;;;10489121;27;20047;-62
2021/01/07 18:06:29;;;;;;;10.40;7.57;;;;;;;;;;10488569;27;20058;-62
2021/01/07 18:11:27;;;;;;;14.20;7.32;;;;;;;;;;10489370;27;20487;-61
2021/01/07 18:16:32;;;;;;;6.87;5.17;;;;;;;;;;10487911;27;20468;-63
2021/01/07 18:21:30;;;;;;;9.32;6.85;;;;;;;;;;10488598;27;20062;-62
2021/01/07 18:26:27;;;;;;;8.85;5.85;;;;;;;;;;10487809;27;20082;-62
2021/01/07 18:31:25;;;;;;;12.05;7.03;;;;;;;;;;10488141;27;20441;-62
2021/01/07 18:36:22;;;;;;;6.72;4.88;;;;;;;;;;10485915;27;20050;-63
2021/01/07 18:41:20;;;;;;;10.43;7.25;;;;;;;;;;10486340;27;20058;-63
2021/01/07 18:46:18;;;;;;;29.83;16.60;;;;;;;;;;10475646;27;20078;-62
2021/01/07 18:51:15;;;;;;;13.95;9.77;;;;;;;;;;10456809;27;20540;-66
2021/01/07 18:56:13;;;;;;;13.68;9.32;;;;;;;;;;10445687;27;20039;-63
2021/01/07 19:01:11;;;;;;;21.65;9.13;;;;;;;;;;10433471;27;20081;-62
2021/01/07 19:06:12;;;;;;;13.23;8.45;;;;;;;;;;10419426;27;20075;-63
2021/01/07 19:11:09;;;;;;;10.85;6.25;;;;;;;;;;10434548;27;20082;-63
2021/01/07 19:16:06;;;;;;;8.85;5.97;;;;;;;;;;10444714;27;20043;-63
2021/01/07 19:21:05;;;;;;;11.50;6.55;;;;;;;;;;10444376;27;20086;-64
2021/01/07 19:26:03;;;;;;;8.82;6.72;;;;;;;;;;10444554;27;20047;-62
2021/01/07 19:31:00;;;;;;;11.52;7.53;;;;;;;;;;10444195;27;20043;-64
2021/01/07 19:36:01;;;;;;;16.25;10.30;;;;;;;;;;10442612;27;20051;-64
2021/01/07 19:40:59;;;;;;;24.48;11.00;;;;;;;;;;10445286;27;20077;-63
2021/01/07 19:45:59;;;;;;;24.63;13.65;;;;;;;;;;10483423;27;20050;-63
2021/01/07 19:50:56;;;;;;;16.58;11.18;;;;;;;;;;10484994;27;20035;-64
2021/01/07 19:55:54;;;;;;;15.73;11.32;;;;;;;;;;10485311;27;20049;-63
2021/01/07 20:00:55;;;;;;;12.18;7.30;;;;;;;;;;10484274;27;20478;-63
2021/01/07 20:05:52;;;;;;;9.27;5.93;;;;;;;;;;10482561;27;20051;-64
2021/01/07 20:10:50;;;;;;;7.75;5.80;;;;;;;;;;10484435;27;20035;-63
2021/01/07 20:15:47;;;;;;;6.10;5.30;;;;;;;;;;10483884;27;20043;-64
2021/01/07 20:20:46;;;;;;;10.07;5.65;;;;;;;;;;10483093;27;20081;-64
2021/01/07 20:25:43;;;;;;;17.30;11.73;;;;;;;;;;10483798;27;20111;-63
2021/01/07 20:30:41;;;;;;;12.75;8.88;;;;;;;;;;10482914;27;20042;-64
2021/01/07 20:35:38;;;;;;;8.60;6.00;;;;;;;;;;10483660;27;20049;-64
2021/01/07 20:40:36;;;;;;;10.15;5.97;;;;;;;;;;10483423;27;20077;-64
2021/01/07 20:45:33;;;;;;;8.95;7.40;;;;;;;;;;10482481;27;20102;-64
2021/01/07 20:50:31;;;;;;;10.75;6.25;;;;;;;;;;10482286;27;20495;-64
2021/01/07 20:55:28;;;;;;;23.88;13.35;;;;;;;;;;10482979;27;20520;-64
2021/01/07 21:00:31;;;;;;;7.53;4.75;;;;;;;;;;10482918;27;20448;-63
2021/01/07 21:05:28;;;;;;;7.68;4.80;;;;;;;;;;10481771;27;20078;-63
2021/01/07 21:10:26;;;;;;;11.70;6.10;;;;;;;;;;10482037;27;20042;-63
2021/01/07 21:15:23;;;;;;;7.20;5.82;;;;;;;;;;10486816;27;20143;-64
2021/01/07 21:20:21;;;;;;;9.10;5.90;;;;;;;;;;10490605;27;20299;-64
2021/01/07 21:25:18;;;;;;;5.60;4.50;;;;;;;;;;10490706;27;20043;-64
2021/01/07 21:30:16;;;;;;;6.85;5.45;;;;;;;;;;10491480;27;20042;-63
2021/01/07 21:35:13;;;;;;;7.88;4.93;;;;;;;;;;10490699;27;20050;-64
2021/01/07 21:40:12;;;;;;;9.02;5.03;;;;;;;;;;10490086;27;20078;-64
2021/01/07 21:45:13;;;;;;;7.68;5.43;;;;;;;;;;10490658;27;20058;-64
2021/01/07 21:50:11;;;;;;;6.93;4.97;;;;;;;;;;10489751;27;20124;-64
2021/01/07 21:55:08;;;;;;;9.50;5.95;;;;;;;;;;10489999;27;20493;-64
2021/01/07 22:00:08;;;;;;;8.40;5.53;;;;;;;;;;10488596;27;20105;-63
2021/01/07 22:05:09;;;;;;;5.63;5.03;;;;;;;;;;10489566;27;20043;-63
2021/01/07 22:10:06;;;;;;;5.97;4.45;;;;;;;;;;10489123;27;20370;-64
2021/01/07 22:15:05;;;;;;;6.43;4.65;;;;;;;;;;10489123;27;20035;-63
2021/01/07 22:20:04;;;;;;;7.70;5.53;;;;;;;;;;10488264;27;20492;-64
2021/01/07 22:25:02;;;;;;;7.10;5.28;;;;;;;;;;10483359;27;20089;-64
2021/01/07 22:29:59;;;;;;;11.10;5.60;;;;;;;;;;10486965;27;20450;-64
2021/01/07 22:34:57;;;;;;;21.45;11.32;;;;;;;;;;10487849;27;20046;-65
2021/01/07 22:39:55;;;;;;;17.33;10.05;;;;;;;;;;10488180;27;20077;-64
2021/01/07 22:44:53;;;;;;;31.05;16.77;;;;;;;;;;10486970;27;20046;-64
2021/01/07 22:49:50;;;;;;;63.50;28.65;;;;;;;;;;10487370;27;20502;-64
2021/01/07 22:54:47;;;;;;;28.40;16.42;;;;;;;;;;10487707;27;20503;-64
2021/01/07 22:59:45;;;;;;;22.20;11.82;;;;;;;;;;10487342;27;20067;-64
2021/01/07 23:04:43;;;;;;;16.23;9.90;;;;;;;;;;10486565;27;20038;-63
2021/01/07 23:09:40;;;;;;;8.35;7.00;;;;;;;;;;10486635;27;20054;-63
2021/01/07 23:14:42;;;;;;;7.70;6.38;;;;;;;;;;10486570;27;20503;-63
2021/01/07 23:19:41;;;;;;;11.95;8.98;;;;;;;;;;10485714;27;20081;-62
2021/01/07 23:24:38;;;;;;;13.82;9.88;;;;;;;;;;10486398;27;20484;-63
2021/01/07 23:29:35;;;;;;;23.67;13.20;;;;;;;;;;10486161;27;20062;-63
2021/01/07 23:34:33;;;;;;;29.05;15.55;;;;;;;;;;10485222;27;20039;-63
2021/01/07 23:39:31;;;;;;;41.25;21.40;;;;;;;;;;10484709;27;20085;-63
2021/01/07 23:44:28;;;;;;;31.95;18.38;;;;;;;;;;10485680;27;20055;-62
2021/01/07 23:49:26;;;;;;;32.35;18.65;;;;;;;;;;10466069;27;20050;-63
2021/01/07 23:54:23;;;;;;;19.20;11.55;;;;;;;;;;10485012;27;20068;-63
2021/01/07 23:59:21;;;;;;;19.48;11.65;;;;;;;;;;10484637;27;20492;-62
